sensor_id;sensor_type;location;lat;lon;timestamp;temperature;humidity
7192;DHT22;3637;51.494;11.958;2023-03-20T00:01:02;11.00;99.90
7192;DHT22;3637;51.494;11.958;2023-03-20T00:04:04;10.80;99.90
7192;DHT22;3637;51.494;11.958;2023-03-20T00:07:06;10.80;99.90
7192;DHT22;3637;51.494;11.958;2023-03-20T00:10:14;11.40;99.90
7192;DHT22;3637;51.494;11.958;2023-03-20T00:13:23;10.80;99.90
7192;DHT22;3637;51.494;11.958;2023-03-20T00:16:30;10.70;99.90
7192;DHT22;3637;51.494;11.958;2023-03-20T00:19:33;10.80;99.90
7192;DHT22;3637;51.494;11.958;2023-03-20T00:22:35;10.70;99.90
7192;DHT22;3637;51.494;11.958;2023-03-20T00:25:39;10.70;99.90
7192;DHT22;3637;51.494;11.958;2023-03-20T00:28:42;10.80;99.90
7192;DHT22;3637;51.494;11.958;2023-03-20T00:31:44;10.80;99.90
7192;DHT22;3637;51.494;11.958;2023-03-20T00:34:46;10.80;99.90
7192;DHT22;3637;51.494;11.958;2023-03-20T00:37:50;10.80;99.90
7192;DHT22;3637;51.494;11.958;2023-03-20T00:40:53;10.50;99.90
7192;DHT22;3637;51.494;11.958;2023-03-20T00:43:58;12.10;99.90
7192;DHT22;3637;51.494;11.958;2023-03-20T00:47:03;10.60;99.90
7192;DHT22;3637;51.494;11.958;2023-03-20T00:50:09;10.80;99.90
7192;DHT22;3637;51.494;11.958;2023-03-20T00:53:15;10.60;99.90
7192;DHT22;3637;51.494;11.958;2023-03-20T00:56:29;10.70;99.90
7192;DHT22;3637;51.494;11.958;2023-03-20T00:59:35;10.70;99.90
7192;DHT22;3637;51.494;11.958;2023-03-20T01:02:37;10.70;99.90
7192;DHT22;3637;51.494;11.958;2023-03-20T01:05:39;10.90;99.90
7192;DHT22;3637;51.494;11.958;2023-03-20T01:08:41;11.50;99.90
7192;DHT22;3637;51.494;11.958;2023-03-20T01:11:44;10.70;99.90
7192;DHT22;3637;51.494;11.958;2023-03-20T01:14:50;10.70;99.90
7192;DHT22;3637;51.494;11.958;2023-03-20T01:17:54;10.70;99.90
7192;DHT22;3637;51.494;11.958;2023-03-20T01:20:55;10.70;99.90
7192;DHT22;3637;51.494;11.958;2023-03-20T01:23:57;10.70;99.90
7192;DHT22;3637;51.494;11.958;2023-03-20T01:27:00;10.70;99.90
7192;DHT22;3637;51.494;11.958;2023-03-20T01:30:13;10.70;99.90
7192;DHT22;3637;51.494;11.958;2023-03-20T01:33:17;10.70;99.90
7192;DHT22;3637;51.494;11.958;2023-03-20T01:36:21;10.60;99.90
7192;DHT22;3637;51.494;11.958;2023-03-20T01:39:29;10.60;99.90
7192;DHT22;3637;51.494;11.958;2023-03-20T01:42:33;10.60;99.90
7192;DHT22;3637;51.494;11.958;2023-03-20T01:45:35;10.60;99.90
7192;DHT22;3637;51.494;11.958;2023-03-20T01:49:06;10.60;99.90
7192;DHT22;3637;51.494;11.958;2023-03-20T01:52:08;10.50;99.90
7192;DHT22;3637;51.494;11.958;2023-03-20T01:55:10;10.50;99.90
7192;DHT22;3637;51.494;11.958;2023-03-20T01:58:15;10.50;99.90
7192;DHT22;3637;51.494;11.958;2023-03-20T02:01:19;11.50;99.90
7192;DHT22;3637;51.494;11.958;2023-03-20T02:04:25;10.50;99.90
7192;DHT22;3637;51.494;11.958;2023-03-20T02:07:29;10.80;99.90
7192;DHT22;3637;51.494;11.958;2023-03-20T02:10:32;10.50;99.90
7192;DHT22;3637;51.494;11.958;2023-03-20T02:13:36;11.10;99.90
7192;DHT22;3637;51.494;11.958;2023-03-20T02:16:38;11.30;99.90
7192;DHT22;3637;51.494;11.958;2023-03-20T02:19:49;10.50;99.90
7192;DHT22;3637;51.494;11.958;2023-03-20T02:23:29;10.50;99.90
7192;DHT22;3637;51.494;11.958;2023-03-20T02:26:46;10.50;99.90
7192;DHT22;3637;51.494;11.958;2023-03-20T02:30:22;10.50;99.90
7192;DHT22;3637;51.494;11.958;2023-03-20T02:33:51;10.40;99.90
7192;DHT22;3637;51.494;11.958;2023-03-20T02:37:17;10.40;99.90
7192;DHT22;3637;51.494;11.958;2023-03-20T02:40:26;10.40;99.90
7192;DHT22;3637;51.494;11.958;2023-03-20T02:43:38;10.40;99.90
7192;DHT22;3637;51.494;11.958;2023-03-20T02:46:52;10.40;99.90
7192;DHT22;3637;51.494;11.958;2023-03-20T02:50:03;9.80;99.90
7192;DHT22;3637;51.494;11.958;2023-03-20T02:53:17;10.40;99.90
7192;DHT22;3637;51.494;11.958;2023-03-20T02:56:25;10.50;99.90
7192;DHT22;3637;51.494;11.958;2023-03-20T02:59:35;10.40;99.90
7192;DHT22;3637;51.494;11.958;2023-03-20T03:02:46;11.20;99.90
7192;DHT22;3637;51.494;11.958;2023-03-20T03:05:52;10.40;99.90
7192;DHT22;3637;51.494;11.958;2023-03-20T03:08:59;10.40;99.90
7192;DHT22;3637;51.494;11.958;2023-03-20T03:12:05;10.40;99.90
7192;DHT22;3637;51.494;11.958;2023-03-20T03:15:12;10.40;99.90
7192;DHT22;3637;51.494;11.958;2023-03-20T03:18:19;10.40;99.90
7192;DHT22;3637;51.494;11.958;2023-03-20T03:21:21;10.40;99.90
7192;DHT22;3637;51.494;11.958;2023-03-20T03:24:30;10.40;99.90
7192;DHT22;3637;51.494;11.958;2023-03-20T03:27:35;10.40;99.90
7192;DHT22;3637;51.494;11.958;2023-03-20T03:30:38;10.40;99.90
7192;DHT22;3637;51.494;11.958;2023-03-20T03:33:45;10.60;99.90
7192;DHT22;3637;51.494;11.958;2023-03-20T03:36:49;10.40;99.90
7192;DHT22;3637;51.494;11.958;2023-03-20T03:40:01;11.10;99.90
7192;DHT22;3637;51.494;11.958;2023-03-20T03:43:09;10.30;99.90
7192;DHT22;3637;51.494;11.958;2023-03-20T03:46:21;10.30;99.90
7192;DHT22;3637;51.494;11.958;2023-03-20T03:49:28;10.40;99.90
7192;DHT22;3637;51.494;11.958;2023-03-20T03:52:33;10.80;99.90
7192;DHT22;3637;51.494;11.958;2023-03-20T03:55:39;10.40;99.90
7192;DHT22;3637;51.494;11.958;2023-03-20T03:58:46;10.40;99.90
7192;DHT22;3637;51.494;11.958;2023-03-20T04:01:49;10.40;99.90
7192;DHT22;3637;51.494;11.958;2023-03-20T04:04:53;10.70;99.90
7192;DHT22;3637;51.494;11.958;2023-03-20T04:08:00;10.40;99.90
7192;DHT22;3637;51.494;11.958;2023-03-20T04:11:04;10.50;99.90
7192;DHT22;3637;51.494;11.958;2023-03-20T04:14:06;10.60;99.90
7192;DHT22;3637;51.494;11.958;2023-03-20T04:17:11;10.30;99.90
7192;DHT22;3637;51.494;11.958;2023-03-20T04:20:13;10.50;99.90
7192;DHT22;3637;51.494;11.958;2023-03-20T04:23:17;11.00;99.90
7192;DHT22;3637;51.494;11.958;2023-03-20T04:26:21;10.30;99.90
7192;DHT22;3637;51.494;11.958;2023-03-20T04:29:22;11.00;99.90
7192;DHT22;3637;51.494;11.958;2023-03-20T04:32:25;10.50;99.90
7192;DHT22;3637;51.494;11.958;2023-03-20T04:35:27;10.30;99.90
7192;DHT22;3637;51.494;11.958;2023-03-20T04:38:29;10.70;99.90
7192;DHT22;3637;51.494;11.958;2023-03-20T04:41:32;10.20;99.90
7192;DHT22;3637;51.494;11.958;2023-03-20T04:44:34;10.30;99.90
7192;DHT22;3637;51.494;11.958;2023-03-20T04:47:36;10.30;99.90
7192;DHT22;3637;51.494;11.958;2023-03-20T04:50:37;10.30;99.90
7192;DHT22;3637;51.494;11.958;2023-03-20T04:53:39;10.30;99.90
7192;DHT22;3637;51.494;11.958;2023-03-20T04:56:43;10.60;99.90
7192;DHT22;3637;51.494;11.958;2023-03-20T04:59:44;10.40;99.90
7192;DHT22;3637;51.494;11.958;2023-03-20T05:02:47;10.40;99.90
7192;DHT22;3637;51.494;11.958;2023-03-20T05:05:49;10.50;99.90
7192;DHT22;3637;51.494;11.958;2023-03-20T05:08:51;10.50;99.90
7192;DHT22;3637;51.494;11.958;2023-03-20T05:11:54;11.40;99.90
7192;DHT22;3637;51.494;11.958;2023-03-20T05:14:56;10.50;99.90
7192;DHT22;3637;51.494;11.958;2023-03-20T05:17:58;10.50;99.90
7192;DHT22;3637;51.494;11.958;2023-03-20T05:21:00;10.50;99.90
7192;DHT22;3637;51.494;11.958;2023-03-20T05:24:02;10.50;99.90
7192;DHT22;3637;51.494;11.958;2023-03-20T05:27:05;10.50;99.90
7192;DHT22;3637;51.494;11.958;2023-03-20T05:30:08;10.50;99.90
7192;DHT22;3637;51.494;11.958;2023-03-20T05:33:10;10.50;99.90
7192;DHT22;3637;51.494;11.958;2023-03-20T05:36:12;10.60;99.90
7192;DHT22;3637;51.494;11.958;2023-03-20T05:39:14;10.60;99.90
7192;DHT22;3637;51.494;11.958;2023-03-20T05:42:17;10.70;99.90
7192;DHT22;3637;51.494;11.958;2023-03-20T05:45:19;10.70;99.90
7192;DHT22;3637;51.494;11.958;2023-03-20T05:48:21;10.70;99.90
7192;DHT22;3637;51.494;11.958;2023-03-20T05:51:23;10.50;99.90
7192;DHT22;3637;51.494;11.958;2023-03-20T05:54:25;10.50;99.90
7192;DHT22;3637;51.494;11.958;2023-03-20T05:57:28;10.50;99.90
7192;DHT22;3637;51.494;11.958;2023-03-20T06:00:30;10.40;99.90
7192;DHT22;3637;51.494;11.958;2023-03-20T06:03:32;10.40;99.90
7192;DHT22;3637;51.494;11.958;2023-03-20T06:06:34;10.30;99.90
7192;DHT22;3637;51.494;11.958;2023-03-20T06:09:37;10.10;99.90
7192;DHT22;3637;51.494;11.958;2023-03-20T06:12:43;10.20;99.90
7192;DHT22;3637;51.494;11.958;2023-03-20T06:15:45;10.90;99.90
7192;DHT22;3637;51.494;11.958;2023-03-20T06:18:47;10.20;99.90
7192;DHT22;3637;51.494;11.958;2023-03-20T06:21:49;10.20;99.90
7192;DHT22;3637;51.494;11.958;2023-03-20T06:24:51;10.10;99.90
7192;DHT22;3637;51.494;11.958;2023-03-20T06:27:54;10.20;99.90
7192;DHT22;3637;51.494;11.958;2023-03-20T06:30:57;10.10;99.90
7192;DHT22;3637;51.494;11.958;2023-03-20T06:33:59;10.10;99.90
7192;DHT22;3637;51.494;11.958;2023-03-20T06:37:02;10.10;99.90
7192;DHT22;3637;51.494;11.958;2023-03-20T06:40:05;10.10;99.90
7192;DHT22;3637;51.494;11.958;2023-03-20T06:43:08;10.10;99.90
7192;DHT22;3637;51.494;11.958;2023-03-20T06:46:11;10.70;99.90
7192;DHT22;3637;51.494;11.958;2023-03-20T06:49:13;10.60;99.90
7192;DHT22;3637;51.494;11.958;2023-03-20T06:52:17;10.20;99.90
7192;DHT22;3637;51.494;11.958;2023-03-20T06:55:20;10.30;99.90
7192;DHT22;3637;51.494;11.958;2023-03-20T06:58:24;10.20;99.90
7192;DHT22;3637;51.494;11.958;2023-03-20T07:01:27;10.30;99.90
7192;DHT22;3637;51.494;11.958;2023-03-20T07:04:32;10.40;99.90
7192;DHT22;3637;51.494;11.958;2023-03-20T07:07:34;10.40;99.90
7192;DHT22;3637;51.494;11.958;2023-03-20T07:10:36;10.50;99.90
7192;DHT22;3637;51.494;11.958;2023-03-20T07:13:39;10.60;99.90
7192;DHT22;3637;51.494;11.958;2023-03-20T07:16:41;10.80;99.90
7192;DHT22;3637;51.494;11.958;2023-03-20T07:19:43;10.80;99.90
7192;DHT22;3637;51.494;11.958;2023-03-20T07:22:46;10.80;99.90
7192;DHT22;3637;51.494;11.958;2023-03-20T07:25:48;10.70;99.90
7192;DHT22;3637;51.494;11.958;2023-03-20T07:28:52;10.80;99.90
7192;DHT22;3637;51.494;11.958;2023-03-20T07:31:55;10.50;99.90
7192;DHT22;3637;51.494;11.958;2023-03-20T07:34:56;10.80;99.90
7192;DHT22;3637;51.494;11.958;2023-03-20T07:37:58;10.70;99.90
7192;DHT22;3637;51.494;11.958;2023-03-20T07:41:00;11.20;99.90
7192;DHT22;3637;51.494;11.958;2023-03-20T07:44:04;11.00;99.90
7192;DHT22;3637;51.494;11.958;2023-03-20T07:47:08;11.10;99.90
7192;DHT22;3637;51.494;11.958;2023-03-20T07:50:10;11.00;99.90
7192;DHT22;3637;51.494;11.958;2023-03-20T07:53:15;11.00;99.90
7192;DHT22;3637;51.494;11.958;2023-03-20T07:56:17;10.90;99.90
7192;DHT22;3637;51.494;11.958;2023-03-20T07:59:24;11.30;99.90
7192;DHT22;3637;51.494;11.958;2023-03-20T08:02:35;11.10;99.90
7192;DHT22;3637;51.494;11.958;2023-03-20T08:05:37;10.90;99.90
7192;DHT22;3637;51.494;11.958;2023-03-20T08:08:39;11.10;99.90
7192;DHT22;3637;51.494;11.958;2023-03-20T08:11:44;11.20;99.90
7192;DHT22;3637;51.494;11.958;2023-03-20T08:14:50;11.20;99.90
7192;DHT22;3637;51.494;11.958;2023-03-20T08:17:51;11.10;99.90
7192;DHT22;3637;51.494;11.958;2023-03-20T08:20:53;11.80;99.90
7192;DHT22;3637;51.494;11.958;2023-03-20T08:23:55;11.80;99.90
7192;DHT22;3637;51.494;11.958;2023-03-20T08:26:58;11.00;99.90
7192;DHT22;3637;51.494;11.958;2023-03-20T08:30:02;11.20;99.90
7192;DHT22;3637;51.494;11.958;2023-03-20T08:33:04;11.00;99.90
7192;DHT22;3637;51.494;11.958;2023-03-20T08:36:07;11.10;99.90
7192;DHT22;3637;51.494;11.958;2023-03-20T08:39:09;11.00;99.90
7192;DHT22;3637;51.494;11.958;2023-03-20T08:43:16;12.30;99.90
7192;DHT22;3637;51.494;11.958;2023-03-20T08:46:42;11.20;99.90
7192;DHT22;3637;51.494;11.958;2023-03-20T08:50:02;11.10;99.90
7192;DHT22;3637;51.494;11.958;2023-03-20T08:53:04;10.90;99.90
7192;DHT22;3637;51.494;11.958;2023-03-20T08:56:07;11.90;99.90
7192;DHT22;3637;51.494;11.958;2023-03-20T08:59:09;11.10;99.90
7192;DHT22;3637;51.494;11.958;2023-03-20T09:02:13;11.20;99.90
7192;DHT22;3637;51.494;11.958;2023-03-20T09:05:15;11.20;99.90
7192;DHT22;3637;51.494;11.958;2023-03-20T09:08:17;11.20;99.90
7192;DHT22;3637;51.494;11.958;2023-03-20T09:11:19;11.20;99.90
7192;DHT22;3637;51.494;11.958;2023-03-20T09:14:21;11.20;99.90
7192;DHT22;3637;51.494;11.958;2023-03-20T09:17:25;11.20;99.90
7192;DHT22;3637;51.494;11.958;2023-03-20T09:20:26;11.20;99.90
7192;DHT22;3637;51.494;11.958;2023-03-20T09:23:28;11.20;99.90
7192;DHT22;3637;51.494;11.958;2023-03-20T09:26:31;11.50;99.90
7192;DHT22;3637;51.494;11.958;2023-03-20T09:29:33;11.20;99.90
7192;DHT22;3637;51.494;11.958;2023-03-20T09:32:36;11.20;99.90
7192;DHT22;3637;51.494;11.958;2023-03-20T09:35:38;11.10;99.90
7192;DHT22;3637;51.494;11.958;2023-03-20T09:38:40;11.00;99.90
7192;DHT22;3637;51.494;11.958;2023-03-20T09:41:46;11.50;99.90
7192;DHT22;3637;51.494;11.958;2023-03-20T09:44:55;11.10;99.90
7192;DHT22;3637;51.494;11.958;2023-03-20T09:48:04;11.20;99.90
7192;DHT22;3637;51.494;11.958;2023-03-20T09:51:13;11.20;99.90
7192;DHT22;3637;51.494;11.958;2023-03-20T09:54:23;11.20;99.90
7192;DHT22;3637;51.494;11.958;2023-03-20T09:57:33;11.30;99.90
7192;DHT22;3637;51.494;11.958;2023-03-20T10:00:41;11.30;99.90
7192;DHT22;3637;51.494;11.958;2023-03-20T10:03:50;11.30;99.90
7192;DHT22;3637;51.494;11.958;2023-03-20T10:06:54;11.20;99.90
7192;DHT22;3637;51.494;11.958;2023-03-20T10:09:56;11.30;99.90
7192;DHT22;3637;51.494;11.958;2023-03-20T10:13:12;11.30;99.90
7192;DHT22;3637;51.494;11.958;2023-03-20T10:16:21;11.20;99.90
7192;DHT22;3637;51.494;11.958;2023-03-20T10:19:29;11.60;99.90
7192;DHT22;3637;51.494;11.958;2023-03-20T10:22:33;11.10;99.90
7192;DHT22;3637;51.494;11.958;2023-03-20T10:25:41;11.10;99.90
7192;DHT22;3637;51.494;11.958;2023-03-20T10:28:47;11.30;99.90
7192;DHT22;3637;51.494;11.958;2023-03-20T10:31:56;11.20;99.90
7192;DHT22;3637;51.494;11.958;2023-03-20T10:35:15;11.20;99.90
7192;DHT22;3637;51.494;11.958;2023-03-20T10:38:28;11.10;99.90
7192;DHT22;3637;51.494;11.958;2023-03-20T10:41:34;10.80;99.90
7192;DHT22;3637;51.494;11.958;2023-03-20T10:44:40;11.50;99.90
7192;DHT22;3637;51.494;11.958;2023-03-20T10:47:50;11.30;99.90
7192;DHT22;3637;51.494;11.958;2023-03-20T10:50:55;10.90;99.90
7192;DHT22;3637;51.494;11.958;2023-03-20T10:54:01;11.80;99.90
7192;DHT22;3637;51.494;11.958;2023-03-20T10:57:05;11.80;99.90
7192;DHT22;3637;51.494;11.958;2023-03-20T11:00:13;11.50;99.90
7192;DHT22;3637;51.494;11.958;2023-03-20T11:03:24;11.50;99.90
7192;DHT22;3637;51.494;11.958;2023-03-20T11:06:31;11.60;99.90
7192;DHT22;3637;51.494;11.958;2023-03-20T11:09:34;11.60;99.90
7192;DHT22;3637;51.494;11.958;2023-03-20T11:12:37;11.70;99.90
7192;DHT22;3637;51.494;11.958;2023-03-20T11:15:39;11.60;99.90
7192;DHT22;3637;51.494;11.958;2023-03-20T11:18:41;11.80;99.90
7192;DHT22;3637;51.494;11.958;2023-03-20T11:21:47;11.70;99.90
7192;DHT22;3637;51.494;11.958;2023-03-20T11:24:51;11.80;99.90
7192;DHT22;3637;51.494;11.958;2023-03-20T11:28:18;11.90;99.90
7192;DHT22;3637;51.494;11.958;2023-03-20T11:31:25;12.30;99.90
7192;DHT22;3637;51.494;11.958;2023-03-20T11:34:32;12.10;99.90
7192;DHT22;3637;51.494;11.958;2023-03-20T11:37:43;11.80;99.90
7192;DHT22;3637;51.494;11.958;2023-03-20T11:40:46;11.80;99.90
7192;DHT22;3637;51.494;11.958;2023-03-20T11:43:48;11.80;99.90
7192;DHT22;3637;51.494;11.958;2023-03-20T11:46:58;11.80;99.90
7192;DHT22;3637;51.494;11.958;2023-03-20T11:50:03;11.70;99.90
7192;DHT22;3637;51.494;11.958;2023-03-20T11:53:20;11.70;99.90
7192;DHT22;3637;51.494;11.958;2023-03-20T11:56:24;12.60;99.90
7192;DHT22;3637;51.494;11.958;2023-03-20T11:59:30;11.80;99.90
7192;DHT22;3637;51.494;11.958;2023-03-20T12:02:34;12.00;99.90
7192;DHT22;3637;51.494;11.958;2023-03-20T12:05:37;11.80;99.90
7192;DHT22;3637;51.494;11.958;2023-03-20T12:08:43;11.90;99.90
7192;DHT22;3637;51.494;11.958;2023-03-20T12:11:49;11.90;99.90
7192;DHT22;3637;51.494;11.958;2023-03-20T12:14:58;12.10;99.90
7192;DHT22;3637;51.494;11.958;2023-03-20T12:18:03;12.00;99.90
7192;DHT22;3637;51.494;11.958;2023-03-20T12:21:10;12.00;99.90
7192;DHT22;3637;51.494;11.958;2023-03-20T12:24:22;12.50;99.90
7192;DHT22;3637;51.494;11.958;2023-03-20T12:27:28;12.90;99.90
7192;DHT22;3637;51.494;11.958;2023-03-20T12:30:47;12.00;99.90
7192;DHT22;3637;51.494;11.958;2023-03-20T12:33:57;12.00;99.90
7192;DHT22;3637;51.494;11.958;2023-03-20T12:37:00;11.90;99.90
7192;DHT22;3637;51.494;11.958;2023-03-20T12:40:04;12.20;99.90
7192;DHT22;3637;51.494;11.958;2023-03-20T12:43:11;12.00;99.90
7192;DHT22;3637;51.494;11.958;2023-03-20T12:46:24;12.10;99.90
7192;DHT22;3637;51.494;11.958;2023-03-20T12:49:35;12.10;99.90
7192;DHT22;3637;51.494;11.958;2023-03-20T12:52:46;12.20;99.90
7192;DHT22;3637;51.494;11.958;2023-03-20T12:56:02;12.20;99.90
7192;DHT22;3637;51.494;11.958;2023-03-20T12:59:12;12.20;99.90
7192;DHT22;3637;51.494;11.958;2023-03-20T13:02:30;12.20;99.90
7192;DHT22;3637;51.494;11.958;2023-03-20T13:05:41;12.20;99.90
7192;DHT22;3637;51.494;11.958;2023-03-20T13:12:28;13.30;99.90
7192;DHT22;3637;51.494;11.958;2023-03-20T13:15:52;12.70;99.90
7192;DHT22;3637;51.494;11.958;2023-03-20T13:19:01;12.90;99.90
7192;DHT22;3637;51.494;11.958;2023-03-20T13:22:07;13.30;99.90
7192;DHT22;3637;51.494;11.958;2023-03-20T13:25:19;13.30;99.90
7192;DHT22;3637;51.494;11.958;2023-03-20T13:28:29;13.00;99.90
7192;DHT22;3637;51.494;11.958;2023-03-20T13:31:42;13.10;99.90
7192;DHT22;3637;51.494;11.958;2023-03-20T13:35:00;13.10;99.90
7192;DHT22;3637;51.494;11.958;2023-03-20T13:38:11;13.20;99.90
7192;DHT22;3637;51.494;11.958;2023-03-20T13:41:15;13.20;99.90
7192;DHT22;3637;51.494;11.958;2023-03-20T13:44:22;13.20;99.90
7192;DHT22;3637;51.494;11.958;2023-03-20T13:47:27;13.00;99.90
7192;DHT22;3637;51.494;11.958;2023-03-20T13:50:38;13.10;99.90
7192;DHT22;3637;51.494;11.958;2023-03-20T13:53:54;13.30;99.90
7192;DHT22;3637;51.494;11.958;2023-03-20T13:57:08;13.30;99.90
7192;DHT22;3637;51.494;11.958;2023-03-20T14:00:19;14.10;99.90
7192;DHT22;3637;51.494;11.958;2023-03-20T14:03:25;13.50;99.90
7192;DHT22;3637;51.494;11.958;2023-03-20T14:06:47;13.60;99.90
7192;DHT22;3637;51.494;11.958;2023-03-20T14:09:53;13.50;99.90
7192;DHT22;3637;51.494;11.958;2023-03-20T14:12:57;13.40;99.90
7192;DHT22;3637;51.494;11.958;2023-03-20T14:16:04;13.40;99.90
7192;DHT22;3637;51.494;11.958;2023-03-20T14:19:16;13.30;99.90
7192;DHT22;3637;51.494;11.958;2023-03-20T14:22:20;13.40;99.90
7192;DHT22;3637;51.494;11.958;2023-03-20T14:25:23;13.40;99.90
7192;DHT22;3637;51.494;11.958;2023-03-20T14:28:28;13.60;99.90
7192;DHT22;3637;51.494;11.958;2023-03-20T14:31:35;13.00;99.90
7192;DHT22;3637;51.494;11.958;2023-03-20T14:34:48;13.00;99.90
7192;DHT22;3637;51.494;11.958;2023-03-20T14:38:03;12.90;99.90
7192;DHT22;3637;51.494;11.958;2023-03-20T14:41:13;12.80;99.90
7192;DHT22;3637;51.494;11.958;2023-03-20T14:44:23;12.60;99.90
7192;DHT22;3637;51.494;11.958;2023-03-20T14:47:37;12.70;99.90
7192;DHT22;3637;51.494;11.958;2023-03-20T14:50:50;12.80;99.90
7192;DHT22;3637;51.494;11.958;2023-03-20T14:53:54;12.70;99.90
7192;DHT22;3637;51.494;11.958;2023-03-20T14:57:09;13.10;99.90
7192;DHT22;3637;51.494;11.958;2023-03-20T15:00:18;13.10;99.90
7192;DHT22;3637;51.494;11.958;2023-03-20T15:03:22;12.60;99.90
7192;DHT22;3637;51.494;11.958;2023-03-20T15:06:25;12.90;99.90
7192;DHT22;3637;51.494;11.958;2023-03-20T15:09:29;12.60;99.90
7192;DHT22;3637;51.494;11.958;2023-03-20T15:12:34;13.10;99.90
7192;DHT22;3637;51.494;11.958;2023-03-20T15:15:36;12.90;99.90
7192;DHT22;3637;51.494;11.958;2023-03-20T15:18:41;13.30;99.90
7192;DHT22;3637;51.494;11.958;2023-03-20T15:21:45;13.10;99.90
7192;DHT22;3637;51.494;11.958;2023-03-20T15:24:51;13.10;99.90
7192;DHT22;3637;51.494;11.958;2023-03-20T15:27:54;13.00;99.90
7192;DHT22;3637;51.494;11.958;2023-03-20T15:30:57;13.00;99.90
7192;DHT22;3637;51.494;11.958;2023-03-20T15:34:04;13.00;99.90
7192;DHT22;3637;51.494;11.958;2023-03-20T15:37:12;13.00;99.90
7192;DHT22;3637;51.494;11.958;2023-03-20T15:40:22;13.20;99.90
7192;DHT22;3637;51.494;11.958;2023-03-20T15:43:24;13.00;99.90
7192;DHT22;3637;51.494;11.958;2023-03-20T15:46:27;13.00;99.90
7192;DHT22;3637;51.494;11.958;2023-03-20T15:49:31;13.50;99.90
7192;DHT22;3637;51.494;11.958;2023-03-20T15:52:38;13.00;99.90
7192;DHT22;3637;51.494;11.958;2023-03-20T15:55:46;12.70;99.90
7192;DHT22;3637;51.494;11.958;2023-03-20T15:58:52;13.10;99.90
7192;DHT22;3637;51.494;11.958;2023-03-20T16:02:00;12.60;99.90
7192;DHT22;3637;51.494;11.958;2023-03-20T16:05:25;12.80;99.90
7192;DHT22;3637;51.494;11.958;2023-03-20T16:08:34;12.50;99.90
7192;DHT22;3637;51.494;11.958;2023-03-20T16:11:38;12.80;99.90
7192;DHT22;3637;51.494;11.958;2023-03-20T16:14:42;12.80;99.90
7192;DHT22;3637;51.494;11.958;2023-03-20T16:17:46;12.90;99.90
7192;DHT22;3637;51.494;11.958;2023-03-20T16:20:55;12.80;99.90
7192;DHT22;3637;51.494;11.958;2023-03-20T16:23:59;12.80;99.90
7192;DHT22;3637;51.494;11.958;2023-03-20T16:27:06;12.80;99.90
7192;DHT22;3637;51.494;11.958;2023-03-20T16:30:14;12.80;99.90
7192;DHT22;3637;51.494;11.958;2023-03-20T16:33:17;12.80;99.90
7192;DHT22;3637;51.494;11.958;2023-03-20T16:36:35;12.70;99.90
7192;DHT22;3637;51.494;11.958;2023-03-20T16:39:39;12.70;99.90
7192;DHT22;3637;51.494;11.958;2023-03-20T16:42:44;12.30;99.90
7192;DHT22;3637;51.494;11.958;2023-03-20T16:45:51;12.90;99.90
7192;DHT22;3637;51.494;11.958;2023-03-20T16:48:56;13.10;99.90
7192;DHT22;3637;51.494;11.958;2023-03-20T16:52:01;13.10;99.90
7192;DHT22;3637;51.494;11.958;2023-03-20T16:55:04;12.50;99.90
7192;DHT22;3637;51.494;11.958;2023-03-20T16:58:19;12.50;99.90
7192;DHT22;3637;51.494;11.958;2023-03-20T17:01:23;12.30;99.90
7192;DHT22;3637;51.494;11.958;2023-03-20T17:04:36;12.40;99.90
7192;DHT22;3637;51.494;11.958;2023-03-20T17:07:49;13.30;99.90
7192;DHT22;3637;51.494;11.958;2023-03-20T17:10:57;13.90;99.90
7192;DHT22;3637;51.494;11.958;2023-03-20T17:14:00;12.70;99.90
7192;DHT22;3637;51.494;11.958;2023-03-20T17:17:07;12.50;99.90
7192;DHT22;3637;51.494;11.958;2023-03-20T17:20:16;12.40;99.90
7192;DHT22;3637;51.494;11.958;2023-03-20T17:23:22;12.40;99.90
7192;DHT22;3637;51.494;11.958;2023-03-20T17:26:24;12.40;99.90
7192;DHT22;3637;51.494;11.958;2023-03-20T17:29:26;12.40;99.90
7192;DHT22;3637;51.494;11.958;2023-03-20T17:32:28;12.70;99.90
7192;DHT22;3637;51.494;11.958;2023-03-20T17:35:31;12.50;99.90
7192;DHT22;3637;51.494;11.958;2023-03-20T17:38:37;12.90;99.90
7192;DHT22;3637;51.494;11.958;2023-03-20T17:41:38;12.80;99.90
7192;DHT22;3637;51.494;11.958;2023-03-20T17:44:40;12.40;99.90
7192;DHT22;3637;51.494;11.958;2023-03-20T17:47:43;12.30;99.90
7192;DHT22;3637;51.494;11.958;2023-03-20T17:50:46;12.40;99.90
7192;DHT22;3637;51.494;11.958;2023-03-20T17:53:51;11.80;99.90
7192;DHT22;3637;51.494;11.958;2023-03-20T17:56:54;12.20;99.90
7192;DHT22;3637;51.494;11.958;2023-03-20T18:00:00;12.40;99.90
7192;DHT22;3637;51.494;11.958;2023-03-20T18:03:05;12.30;99.90
7192;DHT22;3637;51.494;11.958;2023-03-20T18:06:14;12.20;99.90
7192;DHT22;3637;51.494;11.958;2023-03-20T18:09:18;12.30;99.90
7192;DHT22;3637;51.494;11.958;2023-03-20T18:12:20;12.10;99.90
7192;DHT22;3637;51.494;11.958;2023-03-20T18:15:22;12.00;99.90
7192;DHT22;3637;51.494;11.958;2023-03-20T18:18:24;12.30;99.90
7192;DHT22;3637;51.494;11.958;2023-03-20T18:21:26;12.00;99.90
7192;DHT22;3637;51.494;11.958;2023-03-20T18:24:29;11.90;99.90
7192;DHT22;3637;51.494;11.958;2023-03-20T18:27:31;11.90;99.90
7192;DHT22;3637;51.494;11.958;2023-03-20T18:30:38;11.90;99.90
7192;DHT22;3637;51.494;11.958;2023-03-20T18:34:05;12.40;99.90
7192;DHT22;3637;51.494;11.958;2023-03-20T18:37:11;11.70;99.90
7192;DHT22;3637;51.494;11.958;2023-03-20T18:40:21;12.70;99.90
7192;DHT22;3637;51.494;11.958;2023-03-20T18:43:25;10.70;99.90
7192;DHT22;3637;51.494;11.958;2023-03-20T18:46:27;11.80;99.90
7192;DHT22;3637;51.494;11.958;2023-03-20T18:49:29;11.90;99.90
7192;DHT22;3637;51.494;11.958;2023-03-20T18:52:31;11.40;99.90
7192;DHT22;3637;51.494;11.958;2023-03-20T18:55:35;11.70;99.90
7192;DHT22;3637;51.494;11.958;2023-03-20T18:58:40;11.70;99.90
7192;DHT22;3637;51.494;11.958;2023-03-20T19:01:42;12.10;99.90
7192;DHT22;3637;51.494;11.958;2023-03-20T19:04:45;11.60;99.90
7192;DHT22;3637;51.494;11.958;2023-03-20T19:07:47;11.60;99.90
7192;DHT22;3637;51.494;11.958;2023-03-20T19:10:51;11.50;99.90
7192;DHT22;3637;51.494;11.958;2023-03-20T19:13:53;12.30;99.90
7192;DHT22;3637;51.494;11.958;2023-03-20T19:16:55;12.10;99.90
7192;DHT22;3637;51.494;11.958;2023-03-20T19:19:56;11.40;99.90
7192;DHT22;3637;51.494;11.958;2023-03-20T19:22:59;11.60;99.90
7192;DHT22;3637;51.494;11.958;2023-03-20T19:27:26;12.00;99.90
7192;DHT22;3637;51.494;11.958;2023-03-20T19:29:49;11.60;99.90
7192;DHT22;3637;51.494;11.958;2023-03-20T19:32:50;11.30;99.90
7192;DHT22;3637;51.494;11.958;2023-03-20T19:35:55;11.30;99.90
7192;DHT22;3637;51.494;11.958;2023-03-20T19:39:01;11.30;99.90
7192;DHT22;3637;51.494;11.958;2023-03-20T19:42:04;11.30;99.90
7192;DHT22;3637;51.494;11.958;2023-03-20T19:45:18;11.20;99.90
7192;DHT22;3637;51.494;11.958;2023-03-20T19:48:22;11.20;99.90
7192;DHT22;3637;51.494;11.958;2023-03-20T19:51:26;11.30;99.90
7192;DHT22;3637;51.494;11.958;2023-03-20T19:54:28;12.10;99.90
7192;DHT22;3637;51.494;11.958;2023-03-20T19:57:31;11.10;99.90